Time;durP1;ratioP1;P1;durP2;ratioP2;P2;SDS_P1;SDS_P2;PMS_P1;PMS_P2;Temp;Humidity;BMP_temperature;BMP_pressure;BME280_temperature;BME280_humidity;BME280_pressure;Samples;Min_cycle;Max_cycle;Signal;HPM_P1;HPM_P2
2023/07/25 00:01:06;;;;;;;1.00;1.00;;;;;;;20.88;75.19;96690.31;5003312;28;20058;-61
2023/07/25 00:03:33;;;;;;;0.80;0.80;;;;;;;20.50;75.84;96642.31;5002544;28;20432;-61
2023/07/25 00:06:02;;;;;;;0.90;0.90;;;;;;;20.64;76.38;96666.47;5002976;28;20145;-63
2023/07/25 00:08:30;;;;;;;0.90;0.90;;;;;;;20.74;76.80;96685.84;5003499;28;20148;-61
2023/07/25 00:10:57;;;;;;;0.90;0.90;;;;;;;19.53;76.24;96469.47;5003210;28;20521;-63
2023/07/25 00:13:25;;;;;;;0.90;0.90;;;;;;;21.09;75.84;96700.97;5004543;28;20050;-63
2023/07/25 00:15:51;;;;;;;1.00;1.00;;;;;;;20.96;75.48;96678.41;5006860;28;20053;-61
2023/07/25 00:18:18;;;;;;;0.90;0.90;;;;;;;20.91;75.88;96689.41;5006980;28;20073;-61
2023/07/25 00:20:45;;;;;;;0.90;0.90;;;;;;;20.83;75.35;96677.53;4980501;28;20054;-63
2023/07/25 00:23:12;;;;;;;0.90;0.90;;;;;;;20.66;75.15;96641.50;4985449;28;20129;-62
2023/07/25 00:25:38;;;;;;;0.90;0.90;;;;;;;20.72;75.50;96659.41;4987336;28;20061;-61
2023/07/25 00:28:05;;;;;;;0.90;0.90;;;;;;;20.88;75.13;96691.09;4987278;28;20052;-62
2023/07/25 00:30:32;;;;;;;0.90;0.90;;;;;;;20.39;75.58;96641.06;4985603;28;20627;-61
2023/07/25 00:32:58;;;;;;;0.90;0.90;;;;;;;20.01;75.62;96593.03;4987242;28;20444;-61
2023/07/25 00:35:25;;;;;;;0.90;0.90;;;;;;;20.56;75.58;96665.88;4986845;28;20050;-64
2023/07/25 00:37:51;;;;;;;0.90;0.90;;;;;;;20.40;76.59;96693.28;4986929;28;20129;-61
2023/07/25 00:40:18;;;;;;;1.00;1.00;;;;;;;20.27;77.46;96695.22;4986920;28;20053;-62
2023/07/25 00:42:45;;;;;;;0.93;0.93;;;;;;;20.34;77.32;96695.84;4986762;28;20046;-61
2023/07/25 00:45:12;;;;;;;0.90;0.90;;;;;;;20.12;77.73;96668.69;4986559;28;20054;-61
2023/07/25 00:47:38;;;;;;;0.95;0.95;;;;;;;19.95;78.48;96644.63;4987102;28;20050;-61
2023/07/25 00:50:06;;;;;;;0.98;0.98;;;;;;;20.11;79.08;96681.16;4986741;28;20065;-61
2023/07/25 00:52:32;;;;;;;0.82;0.82;;;;;;;20.07;79.28;96674.84;4985219;28;20066;-62
2023/07/25 00:54:59;;;;;;;0.90;0.90;;;;;;;19.79;78.45;96630.59;4986797;28;20069;-62
2023/07/25 00:57:26;;;;;;;0.85;0.85;;;;;;;19.63;78.39;96588.44;4986409;28;20540;-61
2023/07/25 00:59:52;;;;;;;0.90;0.90;;;;;;;20.08;78.51;96659.53;4986509;28;20061;-62
2023/07/25 01:02:19;;;;;;;0.80;0.80;;;;;;;20.27;78.64;96683.97;4986183;28;20531;-63
2023/07/25 01:04:46;;;;;;;0.90;0.90;;;;;;;19.84;79.90;96649.75;4986060;28;20607;-61
2023/07/25 01:07:14;;;;;;;0.70;0.70;;;;;;;19.44;81.66;96624.63;4984726;28;20061;-62
2023/07/25 01:09:44;;;;;;;0.90;0.90;;;;;;;19.93;81.63;96680.81;4984855;28;20060;-61
2023/07/25 01:12:12;;;;;;;0.90;0.90;;;;;;;19.87;82.85;96685.41;4986035;28;20050;-62
2023/07/25 01:14:40;;;;;;;0.90;0.90;;;;;;;19.99;82.42;96681.88;4984977;28;20050;-62
2023/07/25 01:17:17;;;;;;;0.80;0.80;;;;;;;19.79;82.59;96641.84;4986391;28;20047;-61
2023/07/25 01:19:46;;;;;;;0.90;0.90;;;;;;;19.44;81.26;96592.94;4986571;28;20089;-61
2023/07/25 01:22:13;;;;;;;0.90;0.90;;;;;;;20.15;80.01;96687.50;4986413;28;20517;-62
2023/07/25 01:24:45;;;;;;;0.90;0.90;;;;;;;20.07;80.36;96680.47;4986437;28;20150;-62
2023/07/25 01:27:13;;;;;;;0.85;0.85;;;;;;;20.02;79.96;96678.97;4986200;28;20532;-62
2023/07/25 01:29:40;;;;;;;1.00;1.00;;;;;;;19.75;80.45;96646.75;4985966;28;20061;-63
2023/07/25 01:32:07;;;;;;;0.70;0.70;;;;;;;20.12;79.76;96694.75;4984830;28;20133;-62
2023/07/25 01:34:34;;;;;;;0.88;0.88;;;;;;;19.76;80.12;96631.47;4985836;28;20054;-62
2023/07/25 01:37:01;;;;;;;0.80;0.80;;;;;;;20.05;80.06;96689.34;4985887;28;20058;-61
2023/07/25 01:39:27;;;;;;;0.90;0.90;;;;;;;20.09;79.68;96678.00;4985414;28;20575;-62
2023/07/25 01:41:54;;;;;;;0.95;0.95;;;;;;;19.95;79.56;96651.03;4985943;28;20061;-61
2023/07/25 01:44:20;;;;;;;0.90;0.90;;;;;;;20.01;79.79;96676.59;4985178;28;20058;-62
2023/07/25 01:46:47;;;;;;;0.90;0.90;;;;;;;19.65;79.75;96614.09;4985774;28;20050;-62
2023/07/25 01:49:14;;;;;;;0.90;0.90;;;;;;;20.03;80.31;96676.97;4985365;28;20069;-62
2023/07/25 01:51:40;;;;;;;0.90;0.90;;;;;;;20.08;79.95;96682.03;4986025;28;20054;-62
2023/07/25 01:54:07;;;;;;;0.90;0.90;;;;;;;20.04;80.26;96681.34;4984125;28;20062;-61
2023/07/25 01:56:34;;;;;;;0.80;0.80;;;;;;;19.24;81.37;96576.13;4985442;28;20050;-62
2023/07/25 01:59:00;;;;;;;0.85;0.85;;;;;;;19.23;81.78;96580.19;4985178;28;20536;-62
2023/07/25 02:01:27;;;;;;;0.88;0.88;;;;;;;19.80;81.29;96677.13;4985826;28;20149;-62
2023/07/25 02:03:54;;;;;;;0.80;0.80;;;;;;;19.71;81.94;96669.34;4985231;28;20058;-62
2023/07/25 02:06:20;;;;;;;0.80;0.80;;;;;;;19.40;82.54;96642.78;4985268;28;20145;-62
2023/07/25 02:08:47;;;;;;;0.88;0.88;;;;;;;19.05;82.96;96610.69;4985833;28;20062;-62
2023/07/25 02:11:14;;;;;;;0.80;0.80;;;;;;;19.54;82.51;96685.38;4985564;28;20046;-62
2023/07/25 02:13:41;;;;;;;0.90;0.90;;;;;;;19.62;82.64;96699.28;4985330;28;20144;-61
2023/07/25 02:16:07;;;;;;;0.85;0.85;;;;;;;19.14;83.45;96630.50;4985286;28;20493;-61
2023/07/25 02:18:34;;;;;;;1.00;1.00;;;;;;;19.47;82.85;96663.06;4985048;28;20050;-62
2023/07/25 02:21:01;;;;;;;0.80;0.80;;;;;;;19.65;82.91;96678.72;4983596;28;20683;-61
2023/07/25 02:23:28;;;;;;;0.90;0.90;;;;;;;19.57;83.09;96660.47;4997999;28;20571;-62
2023/07/25 02:25:55;;;;;;;0.80;0.80;;;;;;;19.58;82.76;96657.97;4985238;28;20165;-62
2023/07/25 02:28:22;;;;;;;0.90;0.90;;;;;;;19.35;83.27;96641.28;4983348;28;20042;-62
2023/07/25 02:30:48;;;;;;;0.90;0.90;;;;;;;19.64;82.88;96677.13;4984880;28;20145;-62
2023/07/25 02:33:15;;;;;;;0.90;0.90;;;;;;;19.19;83.54;96607.53;4983445;28;20551;-61
2023/07/25 02:35:42;;;;;;;0.80;0.80;;;;;;;19.17;82.94;96578.31;4984197;28;20506;-62
2023/07/25 02:38:09;;;;;;;0.82;0.82;;;;;;;19.31;83.20;96623.75;4984771;28;20540;-61
2023/07/25 02:40:35;;;;;;;0.80;0.80;;;;;;;19.29;84.00;96639.44;4983185;28;20050;-61
2023/07/25 02:43:03;;;;;;;0.80;0.80;;;;;;;19.33;83.79;96643.75;4984646;28;20061;-65
2023/07/25 02:45:30;;;;;;;0.80;0.80;;;;;;;19.57;83.92;96685.75;4983139;28;20143;-62
2023/07/25 02:47:56;;;;;;;0.80;0.80;;;;;;;19.64;83.14;96677.13;4983100;28;20541;-63
2023/07/25 02:50:23;;;;;;;0.88;0.88;;;;;;;19.52;82.57;96656.94;4982547;28;20054;-62
2023/07/25 02:52:50;;;;;;;0.90;0.90;;;;;;;19.58;83.16;96684.50;4984262;28;20066;-61
2023/07/25 02:55:18;;;;;;;0.80;0.80;;;;;;;19.35;83.19;96662.97;4983909;28;20070;-62
2023/07/25 02:57:44;;;;;;;0.80;0.80;;;;;;;19.23;83.87;96667.22;4982890;28;20050;-61
2023/07/25 03:00:12;;;;;;;0.77;0.77;;;;;;;18.84;84.04;96605.53;4983727;28;20065;-62
2023/07/25 03:02:38;;;;;;;0.80;0.80;;;;;;;19.03;84.13;96658.03;4984724;28;20133;-61
2023/07/25 03:05:05;;;;;;;0.80;0.80;;;;;;;19.24;84.99;96691.28;4984137;28;20125;-62
2023/07/25 03:07:32;;;;;;;0.90;0.90;;;;;;;18.95;84.76;96645.38;4984723;28;20046;-63
2023/07/25 03:09:59;;;;;;;0.90;0.90;;;;;;;18.96;85.02;96623.72;4984379;28;20054;-61
2023/07/25 03:12:25;;;;;;;0.80;0.80;;;;;;;19.48;84.29;96684.34;4984197;28;20509;-63
2023/07/25 03:14:52;;;;;;;0.93;0.93;;;;;;;19.49;84.31;96680.28;4982908;28;20054;-61
2023/07/25 03:17:18;;;;;;;0.90;0.90;;;;;;;19.52;84.73;96682.22;4984703;28;20054;-62
2023/07/25 03:19:45;;;;;;;0.80;0.80;;;;;;;19.28;84.86;96635.81;4984259;28;20069;-62
2023/07/25 03:22:12;;;;;;;0.80;0.80;;;;;;;19.49;84.88;96657.81;4984103;28;20046;-63
2023/07/25 03:24:38;;;;;;;0.80;0.80;;;;;;;19.12;84.09;96593.69;4984235;28;20070;-62
2023/07/25 03:27:05;;;;;;;0.90;0.90;;;;;;;19.71;83.89;96662.91;4984663;28;20054;-61
2023/07/25 03:29:32;;;;;;;1.00;1.00;;;;;;;19.15;83.28;96559.09;4983906;28;20489;-61
2023/07/25 03:31:59;;;;;;;0.90;0.90;;;;;;;19.79;83.10;96676.34;4983103;28;20109;-61
2023/07/25 03:34:25;;;;;;;0.88;0.88;;;;;;;19.80;83.20;96668.69;4984100;28;20137;-63
2023/07/25 03:36:52;;;;;;;0.80;0.80;;;;;;;19.81;83.25;96667.47;4984512;28;20540;-61
2023/07/25 03:39:20;;;;;;;0.90;0.90;;;;;;;19.61;83.54;96641.47;4984071;28;20054;-62
2023/07/25 03:41:46;;;;;;;0.90;0.90;;;;;;;19.34;83.23;96583.53;4982697;28;20058;-61
2023/07/25 03:44:20;;;;;;;0.90;0.90;;;;;;;20.03;82.91;96657.28;4984395;28;20050;-62
2023/07/25 03:46:46;;;;;;;0.90;0.90;;;;;;;20.13;82.47;96678.69;4984606;28;20128;-62
2023/07/25 03:49:13;;;;;;;0.90;0.90;;;;;;;18.57;81.79;96422.63;4987153;28;20054;-61
2023/07/25 03:51:40;;;;;;;0.90;0.90;;;;;;;20.22;81.40;96664.81;4988128;28;20439;-61
2023/07/25 03:54:07;;;;;;;0.90;0.90;;;;;;;20.14;81.48;96655.00;4986503;28;20053;-62
2023/07/25 03:56:33;;;;;;;0.82;0.82;;;;;;;20.49;80.34;96668.88;4987504;28;20295;-63
2023/07/25 03:59:00;;;;;;;1.00;1.00;;;;;;;20.37;80.26;96649.13;4987873;28;20132;-62
2023/07/25 04:01:27;;;;;;;0.90;0.90;;;;;;;20.29;79.87;96619.63;4987244;28;20469;-62
2023/07/25 04:03:54;;;;;;;0.80;0.80;;;;;;;20.70;79.60;96673.13;4987927;28;20050;-62
2023/07/25 04:06:21;;;;;;;1.05;1.05;;;;;;;20.95;78.15;96676.00;4987687;28;20118;-63
2023/07/25 04:08:47;;;;;;;0.82;0.82;;;;;;;20.83;77.49;96643.00;4987682;28;20057;-61
2023/07/25 04:11:14;;;;;;;0.90;0.90;;;;;;;20.74;77.46;96606.22;4987436;28;20069;-62
2023/07/25 04:13:41;;;;;;;1.00;1.00;;;;;;;21.15;76.66;96648.47;4986343;28;20060;-63
2023/07/25 04:16:08;;;;;;;0.90;0.90;;;;;;;21.18;76.02;96667.31;4985944;28;20050;-61
2023/07/25 04:18:35;;;;;;;0.90;0.90;;;;;;;20.64;75.48;96573.59;4987599;28;20543;-63
2023/07/25 04:21:01;;;;;;;0.90;0.90;;;;;;;21.04;76.13;96639.53;4987341;28;20498;-62
2023/07/25 04:23:28;;;;;;;0.90;0.90;;;;;;;20.55;76.62;96584.72;4987928;28;20050;-61
2023/07/25 04:25:55;;;;;;;0.90;0.90;;;;;;;21.06;76.63;96656.78;4985502;28;20050;-62
2023/07/25 04:28:21;;;;;;;1.00;1.00;;;;;;;21.16;76.59;96658.50;4987588;28;20550;-61
2023/07/25 04:30:48;;;;;;;1.00;1.00;;;;;;;21.33;75.60;96648.72;4986770;28;20061;-62
2023/07/25 04:33:15;;;;;;;0.90;0.90;;;;;;;21.36;74.81;96622.44;4987165;28;20054;-61
2023/07/25 04:35:45;;;;;;;0.90;0.90;;;;;;;21.84;74.94;96667.22;4985436;28;20054;-62
2023/07/25 04:38:14;;;;;;;0.95;0.95;;;;;;;21.12;75.55;96553.59;4986941;28;20065;-63
2023/07/25 04:40:42;;;;;;;1.05;1.05;;;;;;;22.04;74.97;96664.91;4986818;28;20495;-62
2023/07/25 04:43:09;;;;;;;1.00;1.00;;;;;;;21.90;74.26;96620.28;4985914;28;20055;-62
2023/07/25 04:45:37;;;;;;;1.00;1.00;;;;;;;22.19;73.07;96637.00;4985285;28;20046;-62
2023/07/25 04:48:04;;;;;;;0.90;0.90;;;;;;;22.43;72.52;96650.22;4987652;28;20058;-62
2023/07/25 04:50:31;;;;;;;1.00;1.00;;;;;;;22.53;72.11;96639.03;4987057;28;20058;-61
2023/07/25 04:52:58;;;;;;;1.10;1.10;;;;;;;22.91;71.49;96670.69;4986987;28;20049;-64
2023/07/25 04:55:24;;;;;;;1.02;1.02;;;;;;;22.92;70.35;96655.34;4985544;28;20606;-60
2023/07/25 04:57:51;;;;;;;1.10;1.10;;;;;;;23.03;70.74;96681.16;4986663;28;20572;-61
2023/07/25 05:00:18;;;;;;;1.00;1.00;;;;;;;23.18;70.05;96679.34;4986284;28;20050;-63
2023/07/25 05:02:44;;;;;;;1.02;1.02;;;;;;;22.89;69.72;96600.53;4986488;28;20061;-60
2023/07/25 05:05:11;;;;;;;0.90;0.90;;;;;;;22.95;69.10;96584.56;4985292;28;20054;-62
2023/07/25 05:07:38;;;;;;;1.08;1.08;;;;;;;23.43;68.16;96639.63;4986739;28;20058;-62
2023/07/25 05:10:05;;;;;;;1.02;1.02;;;;;;;23.81;67.19;96671.19;4986736;28;20422;-62
2023/07/25 05:12:32;;;;;;;1.05;1.05;;;;;;;23.88;67.26;96665.25;4986359;28;20046;-62
2023/07/25 05:14:59;;;;;;;1.00;1.00;;;;;;;24.01;66.86;96654.66;4965622;28;20541;-63
2023/07/25 05:17:25;;;;;;;1.10;1.10;;;;;;;22.95;66.92;96471.56;4965819;28;20054;-63
2023/07/25 05:19:52;;;;;;;1.00;1.00;;;;;;;22.84;66.14;96434.47;4966911;28;20612;-64
2023/07/25 05:22:18;;;;;;;1.30;1.30;;;;;;;24.48;66.70;96663.53;4972463;28;20054;-62
2023/07/25 05:24:45;;;;;;;1.13;1.13;;;;;;;24.67;66.35;96645.31;4986011;28;20535;-63
2023/07/25 05:27:12;;;;;;;1.10;1.10;;;;;;;24.80;64.93;96628.91;4985933;28;20066;-61
2023/07/25 05:29:39;;;;;;;1.30;1.30;;;;;;;24.56;63.66;96562.81;4969100;28;20068;-67
2023/07/25 05:32:06;;;;;;;1.17;1.17;;;;;;;25.32;63.09;96659.66;4985317;28;20057;-66
2023/07/25 05:34:33;;;;;;;1.27;1.27;;;;;;;25.42;62.79;96651.19;4986689;28;20046;-65
2023/07/25 05:37:00;;;;;;;1.10;1.10;;;;;;;25.32;63.26;96654.00;4986587;28;20065;-64
2023/07/25 05:39:26;;;;;;;1.17;1.17;;;;;;;25.37;62.66;96631.97;4988177;28;20090;-62
2023/07/25 05:41:53;;;;;;;1.10;1.10;;;;;;;25.59;62.84;96655.22;5001570;28;20053;-63
2023/07/25 05:44:20;;;;;;;1.27;1.27;;;;;;;25.31;63.21;96626.91;4998667;28;20533;-60
2023/07/25 05:46:46;;;;;;;1.20;1.20;;;;;;;25.71;63.53;96651.34;4993587;28;20460;-64
2023/07/25 05:49:13;;;;;;;1.33;1.33;;;;;;;25.88;61.59;96624.94;5012188;28;20045;-63
2023/07/25 05:51:40;;;;;;;1.20;1.20;;;;;;;25.99;60.72;96627.25;4985734;28;20661;-62
2023/07/25 05:54:07;;;;;;;1.38;1.38;;;;;;;26.15;60.35;96612.66;4997766;28;20555;-64
2023/07/25 05:56:34;;;;;;;1.33;1.33;;;;;;;26.07;59.85;96571.69;4991731;28;20054;-65
2023/07/25 05:59:00;;;;;;;1.30;1.30;;;;;;;26.39;59.50;96590.72;4985218;28;20046;-61
2023/07/25 06:01:27;;;;;;;1.50;1.50;;;;;;;26.77;59.10;96636.19;4987321;28;20054;-62
2023/07/25 06:03:54;;;;;;;1.60;1.60;;;;;;;26.61;58.71;96611.84;4984697;28;20057;-65
2023/07/25 06:06:21;;;;;;;1.45;1.45;;;;;;;26.48;57.65;96540.28;4986819;28;20077;-61
2023/07/25 06:08:47;;;;;;;1.45;1.45;;;;;;;27.33;55.72;96616.06;5003321;28;20084;-66
2023/07/25 06:11:15;;;;;;;1.55;1.55;;;;;;;27.42;55.33;96600.94;4993629;28;20500;-67
2023/07/25 06:13:42;;;;;;;1.70;1.70;;;;;;;26.77;54.90;96454.28;5001174;28;20517;-62
2023/07/25 06:16:09;;;;;;;1.63;1.63;;;;;;;27.93;54.31;96621.97;5000682;28;20050;-62
2023/07/25 06:18:35;;;;;;;1.40;1.40;;;;;;;27.81;55.43;96625.91;4984610;28;20054;-64
2023/07/25 06:21:02;;;;;;;1.52;1.52;;;;;;;27.90;54.38;96608.72;4984602;28;20142;-62
2023/07/25 06:23:29;;;;;;;1.50;1.50;;;;;;;26.97;55.73;96548.19;4984643;28;20053;-63
2023/07/25 06:25:56;;;;;;;1.80;1.80;;;;;;;27.25;54.93;96528.75;5022358;28;20476;-62
2023/07/25 06:28:23;;;;;;;1.35;1.35;;;;;;;27.41;54.87;96548.94;5010411;28;20120;-68
2023/07/25 06:30:49;;;;;;;1.58;1.58;;;;;;;27.81;54.41;96553.94;5007634;28;20054;-66
2023/07/25 06:33:16;;;;;;;1.52;1.52;;;;;;;28.20;52.76;96580.16;5003084;28;20115;-62
2023/07/25 06:35:43;;;;;;;1.80;1.80;;;;;;;28.58;52.59;96599.81;5016693;28;20240;-62
2023/07/25 06:38:10;;;;;;;1.83;1.83;;;;;;;28.93;51.07;96601.25;4992577;28;20056;-67
2023/07/25 06:40:36;;;;;;;1.60;1.60;;;;;;;29.14;51.01;96599.16;4984244;28;20057;-68
2023/07/25 06:43:03;;;;;;;1.83;1.83;;;;;;;28.11;50.61;96413.00;4983011;28;20058;-68
2023/07/25 06:45:30;;;;;;;1.83;1.83;;;;;;;29.27;50.16;96553.88;4984486;28;20504;-64
2023/07/25 06:47:57;;;;;;;2.10;2.10;;;;;;;28.59;49.69;96418.94;4987762;28;20429;-64
2023/07/25 06:50:24;;;;;;;1.58;1.58;;;;;;;29.69;49.93;96593.19;4991751;28;20054;-68
2023/07/25 06:52:50;;;;;;;1.70;1.70;;;;;;;29.23;49.64;96519.06;4994768;28;20986;-66
2023/07/25 06:55:19;;;;;;;1.83;1.83;;;;;;;29.26;50.65;96569.44;4991514;28;20133;-62
2023/07/25 06:57:46;;;;;;;1.90;1.90;;;;;;;28.94;51.38;96594.28;4982852;28;20332;-62
2023/07/25 07:00:13;;;;;;;1.80;1.80;;;;;;;27.82;50.78;96385.47;4987304;28;20120;-63
2023/07/25 07:02:41;;;;;;;1.70;1.70;;;;;;;28.97;50.99;96584.72;5002634;28;20164;-68
2023/07/25 07:05:08;;;;;;;1.60;1.60;;;;;;;29.21;49.67;96584.44;4993920;28;20521;-60
2023/07/25 07:07:54;;;;;;;1.70;1.70;;;;;;;29.42;49.77;96600.19;4983707;28;20601;-64
2023/07/25 07:10:21;;;;;;;1.90;1.90;;;;;;;29.34;50.42;96579.88;4998729;28;20065;-65
2023/07/25 07:12:48;;;;;;;1.75;1.75;;;;;;;29.20;50.16;96580.00;5000700;28;20049;-61
2023/07/25 07:15:15;;;;;;;1.80;1.80;;;;;;;29.23;48.93;96541.91;4996732;28;20148;-64
2023/07/25 07:17:42;;;;;;;1.80;1.80;;;;;;;29.28;48.98;96532.59;5000785;28;20046;-61
2023/07/25 07:20:09;;;;;;;1.83;1.83;;;;;;;29.17;47.94;96461.97;4984494;28;20058;-64
2023/07/25 07:22:36;;;;;;;1.80;1.80;;;;;;;29.98;48.23;96550.00;4986926;28;20057;-64
2023/07/25 07:25:03;;;;;;;1.70;1.70;;;;;;;29.91;48.62;96522.69;4999626;28;20531;-69
2023/07/25 07:27:30;;;;;;;1.90;1.90;;;;;;;30.14;47.98;96544.38;4997451;28;20089;-64
2023/07/25 07:29:57;;;;;;;1.92;1.92;;;;;;;30.05;47.61;96504.56;4998567;28;20058;-62
2023/07/25 07:32:23;;;;;;;1.70;1.70;;;;;;;30.48;47.45;96526.06;5009011;28;20143;-65
2023/07/25 07:34:50;;;;;;;2.10;2.10;;;;;;;30.67;46.86;96515.72;5000708;28;20060;-63
2023/07/25 07:37:17;;;;;;;1.83;1.83;;;;;;;30.63;45.73;96498.06;5002446;28;20049;-65
2023/07/25 07:39:44;;;;;;;2.10;2.10;;;;;;;30.75;45.48;96516.78;5004335;28;20129;-62
2023/07/25 07:42:10;;;;;;;1.60;1.60;;;;;;;30.91;45.73;96546.75;4994280;28;20501;-62
2023/07/25 07:44:37;;;;;;;1.60;1.60;;;;;;;30.27;45.75;96449.63;5003041;28;20047;-63
2023/07/25 07:47:04;;;;;;;1.83;1.83;;;;;;;30.70;45.42;96508.97;5007440;28;20058;-65
2023/07/25 07:49:33;;;;;;;1.85;1.85;;;;;;;30.82;45.42;96486.94;5003267;28;20084;-65
2023/07/25 07:52:01;;;;;;;1.80;1.80;;;;;;;30.86;44.92;96542.59;4997138;28;20046;-65
2023/07/25 07:54:42;;;;;;;1.77;1.77;;;;;;;30.73;44.83;96522.25;4994057;28;20046;-65
2023/07/25 07:57:09;;;;;;;1.95;1.95;;;;;;;31.14;44.66;96530.41;5006210;28;20531;-64
2023/07/25 07:59:36;;;;;;;2.10;2.10;;;;;;;31.27;44.19;96531.44;4995482;28;20057;-63
2023/07/25 08:02:03;;;;;;;1.88;1.88;;;;;;;31.37;44.32;96531.97;5006562;28;20053;-65
2023/07/25 08:04:30;;;;;;;2.00;2.00;;;;;;;31.13;44.14;96529.63;5006588;28;20057;-60
2023/07/25 08:06:56;;;;;;;2.10;2.10;;;;;;;31.33;43.93;96531.47;5006410;28;20618;-69
2023/07/25 08:09:23;;;;;;;1.85;1.85;;;;;;;31.34;43.95;96515.84;5004044;28;20053;-71
2023/07/25 08:11:50;;;;;;;1.80;1.80;;;;;;;31.66;43.55;96525.72;4999733;28;20081;-63
2023/07/25 08:14:16;;;;;;;2.03;2.03;;;;;;;31.72;43.63;96523.63;4995182;28;20069;-61
2023/07/25 08:16:43;;;;;;;1.95;1.95;;;;;;;32.07;43.62;96526.69;5005841;28;20073;-63
2023/07/25 08:19:10;;;;;;;1.85;1.85;;;;;;;32.21;42.82;96491.19;5004196;28;20054;-63
2023/07/25 08:21:37;;;;;;;2.20;2.20;;;;;;;32.42;43.79;96495.31;4989750;28;20061;-66
2023/07/25 08:24:04;;;;;;;2.00;2.00;;;;;;;32.75;42.02;96505.81;4998352;28;20053;-61
2023/07/25 08:26:31;;;;;;;2.03;2.03;;;;;;;32.71;42.03;96503.22;4996814;28;20077;-63
2023/07/25 08:28:58;;;;;;;2.10;2.10;;;;;;;32.76;42.75;96476.56;4986977;28;20046;-63
2023/07/25 08:31:24;;;;;;;2.28;2.28;;;;;;;32.76;41.25;96433.53;4986660;28;20061;-62
2023/07/25 08:33:51;;;;;;;2.20;2.20;;;;;;;32.68;42.01;96466.97;4986158;28;20057;-63
2023/07/25 08:36:18;;;;;;;1.90;1.90;;;;;;;32.57;42.05;96444.09;4987060;28;20066;-63
2023/07/25 08:38:44;;;;;;;2.00;2.00;;;;;;;32.99;41.79;96492.34;4992556;28;20077;-60
2023/07/25 08:41:25;;;;;;;1.73;1.73;;;;;;;33.21;42.08;96474.94;4992532;28;20050;-61
2023/07/25 08:43:54;;;;;;;2.15;2.15;;;;;;;32.59;42.75;96481.66;5001108;28;20061;-60
2023/07/25 08:46:25;;;;;;;1.88;1.88;;;;;;;32.25;43.07;96451.53;4997809;28;20271;-65
2023/07/25 08:48:57;;;;;;;1.90;1.90;;;;;;;31.91;43.63;96433.75;5001188;28;20045;-62
2023/07/25 08:51:27;;;;;;;1.85;1.85;;;;;;;32.12;43.34;96394.03;4992033;28;20122;-60
2023/07/25 08:54:37;;;;;;;1.70;1.70;;;;;;;32.44;43.02;96475.47;4986329;28;20058;-62
2023/07/25 08:57:04;;;;;;;1.65;1.65;;;;;;;32.67;42.63;96476.91;4986333;28;20543;-62
2023/07/25 08:59:31;;;;;;;1.90;1.90;;;;;;;32.13;43.41;96475.84;4990887;28;20057;-64
2023/07/25 09:01:59;;;;;;;2.28;2.28;;;;;;;32.57;43.67;96467.06;5002772;28;20077;-64
2023/07/25 09:04:27;;;;;;;1.83;1.83;;;;;;;32.79;42.57;96454.63;4984005;28;20054;-64
2023/07/25 09:06:54;;;;;;;2.22;2.22;;;;;;;33.02;42.13;96439.59;4986053;28;20058;-64
2023/07/25 09:09:22;;;;;;;1.77;1.77;;;;;;;32.85;42.93;96464.75;4988616;28;20065;-62
2023/07/25 09:11:49;;;;;;;2.13;2.13;;;;;;;32.58;43.16;96450.63;5018695;28;20049;-60
2023/07/25 09:14:15;;;;;;;2.17;2.17;;;;;;;33.09;42.81;96458.34;5004374;28;20045;-64
2023/07/25 09:16:42;;;;;;;1.88;1.88;;;;;;;32.54;42.78;96415.69;4996269;28;20065;-64
2023/07/25 09:19:09;;;;;;;2.20;2.20;;;;;;;33.41;42.52;96453.66;4990002;28;20392;-61
2023/07/25 09:21:53;;;;;;;1.67;1.67;;;;;;;33.63;41.69;96454.22;5003026;28;20116;-64
2023/07/25 09:24:20;;;;;;;1.90;1.90;;;;;;;33.49;41.62;96443.91;5004401;28;20081;-64
2023/07/25 09:26:48;;;;;;;1.98;1.98;;;;;;;33.60;41.98;96449.56;5020267;28;20180;-65
2023/07/25 09:29:16;;;;;;;2.13;2.13;;;;;;;33.56;41.12;96405.97;5003365;28;20075;-66
2023/07/25 09:31:46;;;;;;;1.73;1.73;;;;;;;34.01;41.31;96437.09;5011087;28;20520;-62
2023/07/25 09:34:19;;;;;;;1.98;1.98;;;;;;;34.29;41.26;96434.66;4997794;28;20046;-63
2023/07/25 09:36:50;;;;;;;2.45;2.38;;;;;;;33.83;40.67;96311.34;4989215;28;20050;-62
2023/07/25 09:39:17;;;;;;;2.03;2.03;;;;;;;34.82;39.91;96436.50;5005784;28;20045;-61
2023/07/25 09:41:45;;;;;;;1.98;1.98;;;;;;;34.74;39.38;96398.94;5003691;28;20054;-65
2023/07/25 09:44:12;;;;;;;2.35;2.33;;;;;;;34.39;39.65;96399.22;4997007;28;20304;-64
2023/07/25 09:46:39;;;;;;;1.90;1.90;;;;;;;34.29;40.10;96371.38;4988855;28;20051;-64
2023/07/25 09:49:06;;;;;;;2.03;2.03;;;;;;;35.24;39.94;96421.16;5001507;28;20446;-68
2023/07/25 09:51:32;;;;;;;1.92;1.92;;;;;;;35.04;39.62;96421.78;4995599;28;20053;-61
2023/07/25 09:53:59;;;;;;;2.10;2.10;;;;;;;35.08;39.79;96419.34;4999192;28;20050;-62
2023/07/25 09:56:26;;;;;;;2.17;2.17;;;;;;;35.38;39.67;96407.59;4985079;28;20050;-64
2023/07/25 09:58:54;;;;;;;2.13;2.13;;;;;;;35.45;38.92;96419.25;4996111;28;20056;-61
2023/07/25 10:01:24;;;;;;;2.15;2.15;;;;;;;35.61;39.10;96409.53;5004881;28;20436;-62
2023/07/25 10:03:52;;;;;;;2.00;2.00;;;;;;;34.42;40.39;96380.88;5003824;28;20049;-65
2023/07/25 10:06:19;;;;;;;1.88;1.88;;;;;;;34.90;40.13;96374.88;5004462;28;20491;-62
2023/07/25 10:08:47;;;;;;;2.08;2.08;;;;;;;34.50;39.67;96334.97;5005204;28;20154;-64
2023/07/25 10:11:14;;;;;;;1.90;1.90;;;;;;;34.78;40.59;96361.19;5003039;28;20058;-65
2023/07/25 10:13:41;;;;;;;2.10;2.10;;;;;;;35.11;39.94;96383.69;5004555;28;20496;-64
2023/07/25 10:16:10;;;;;;;2.13;2.13;;;;;;;34.56;40.62;96378.81;5004554;28;20068;-62
2023/07/25 10:18:37;;;;;;;2.13;2.13;;;;;;;35.13;40.31;96368.75;5003215;28;20050;-63
2023/07/25 10:21:04;;;;;;;1.92;1.92;;;;;;;34.99;39.96;96313.22;5004547;28;20195;-62
2023/07/25 10:23:34;;;;;;;1.83;1.83;;;;;;;35.24;40.44;96369.31;5004342;28;20053;-64
2023/07/25 10:26:16;;;;;;;1.92;1.92;;;;;;;35.44;40.46;96362.97;5004329;28;20089;-62
2023/07/25 10:28:43;;;;;;;2.10;2.10;;;;;;;35.85;40.01;96360.28;5003275;28;20057;-64
2023/07/25 10:31:25;;;;;;;1.90;1.90;;;;;;;34.38;40.20;96218.50;5003743;28;20282;-63
2023/07/25 10:33:58;;;;;;;2.30;2.30;;;;;;;35.10;40.31;96359.88;5004723;28;20494;-62
2023/07/25 10:36:25;;;;;;;1.92;1.92;;;;;;;35.06;40.71;96321.97;5004579;28;20054;-65
2023/07/25 10:39:03;;;;;;;1.80;1.80;;;;;;;35.43;39.80;96321.03;5004438;28;20427;-62
2023/07/25 10:41:30;;;;;;;1.95;1.95;;;;;;;36.06;39.86;96352.50;5004320;28;20489;-64
2023/07/25 10:43:59;;;;;;;2.10;2.10;;;;;;;36.21;38.86;96344.06;5003213;28;20058;-63
2023/07/25 10:46:31;;;;;;;2.33;2.33;;;;;;;36.17;38.18;96314.75;5004252;28;20049;-64
2023/07/25 10:49:15;;;;;;;2.13;2.13;;;;;;;35.71;39.00;96286.66;5004226;28;20061;-62
2023/07/25 10:51:53;;;;;;;2.08;2.08;;;;;;;35.51;39.60;96330.59;5003887;28;20053;-64
2023/07/25 10:54:27;;;;;;;2.13;2.13;;;;;;;35.93;39.61;96332.34;5004263;28;20050;-60
2023/07/25 10:57:22;;;;;;;2.25;2.25;;;;;;;35.61;38.74;96325.94;5003659;28;20133;-63
2023/07/25 11:00:08;;;;;;;1.90;1.90;;;;;;;35.19;40.02;96315.44;5003702;28;20513;-62
2023/07/25 11:02:37;;;;;;;1.73;1.73;;;;;;;35.34;40.15;96307.06;5002771;28;20088;-64
2023/07/25 11:05:12;;;;;;;2.35;2.35;;;;;;;35.48;39.27;96308.63;5003463;28;20061;-62
2023/07/25 11:07:46;;;;;;;2.13;2.13;;;;;;;35.67;38.89;96303.53;5003756;28;20050;-62
2023/07/25 11:10:27;;;;;;;2.13;2.13;;;;;;;35.77;38.77;96313.28;5003734;28;20513;-65
2023/07/25 11:13:00;;;;;;;2.10;2.10;;;;;;;35.80;39.23;96303.50;5003504;28;20501;-63
2023/07/25 11:15:27;;;;;;;2.15;2.15;;;;;;;36.32;37.36;96299.75;5003962;28;20062;-62
2023/07/25 11:18:13;;;;;;;2.08;2.08;;;;;;;36.23;38.02;96286.53;5003986;28;20050;-61
2023/07/25 11:20:39;;;;;;;1.92;1.92;;;;;;;36.10;37.58;96254.09;5003745;28;20444;-62
2023/07/25 11:23:06;;;;;;;2.10;2.10;;;;;;;36.09;38.03;96296.59;5003312;28;20052;-63
2023/07/25 11:25:33;;;;;;;2.45;2.40;;;;;;;35.94;38.37;96226.41;5003662;28;20086;-61
2023/07/25 11:28:00;;;;;;;2.17;2.17;;;;;;;36.86;36.97;96275.88;5002107;28;20509;-63
2023/07/25 11:30:26;;;;;;;2.22;2.22;;;;;;;36.95;37.15;96286.91;5003553;28;20052;-64
2023/07/25 11:32:54;;;;;;;2.33;2.30;;;;;;;37.23;37.01;96272.53;5003418;28;20046;-63
2023/07/25 11:35:21;;;;;;;2.20;2.20;;;;;;;37.09;37.35;96262.38;5003286;28;20053;-61
2023/07/25 11:37:50;;;;;;;2.42;2.38;;;;;;;36.28;36.60;96138.50;5003443;28;20504;-63